Time;durP1;ratioP1;P1;durP2;ratioP2;P2;SDS_P1;SDS_P2;PMS_P1;PMS_P2;Temp;Humidity;BMP_temperature;BMP_pressure;BME280_temperature;BME280_humidity;BME280_pressure;Samples;Min_cycle;Max_cycle;Signal;HPM_P1;HPM_P2
2024/02/18 00:00:43;;;;;;;;;;;;;;;24.43;30.23;102951.50;4133569;28;19975;-69
2024/02/18 00:02:45;;;;;;;;;;;;;;;24.44;30.39;102955.94;4133647;28;19925;-69
2024/02/18 00:04:47;;;;;;;;;;;;;;;24.43;30.42;102962.25;4133167;28;19926;-69
2024/02/18 00:06:49;;;;;;;;;;;;;;;24.43;30.66;102959.56;4133347;28;19976;-68
2024/02/18 00:08:50;;;;;;;;;;;;;;;24.40;30.37;102960.63;4133659;28;19949;-68
2024/02/18 00:10:52;;;;;;;;;;;;;;;24.40;30.40;102954.41;4133478;28;19926;-68
2024/02/18 00:12:54;;;;;;;;;;;;;;;24.40;30.60;102959.78;4116330;28;19926;-68
2024/02/18 00:14:56;;;;;;;;;;;;;;;24.38;30.54;102957.16;4133574;28;20294;-69
2024/02/18 00:16:57;;;;;;;;;;;;;;;24.38;30.37;102959.00;4133305;28;20358;-69
2024/02/18 00:18:59;;;;;;;;;;;;;;;24.37;30.71;102962.63;4133094;28;20433;-68
2024/02/18 00:21:01;;;;;;;;;;;;;;;24.37;30.78;102947.34;4133517;28;19930;-69
2024/02/18 00:23:02;;;;;;;;;;;;;;;24.37;30.69;102941.97;4133450;28;19932;-69
2024/02/18 00:25:07;;;;;;;;;;;;;;;24.38;30.65;102940.16;4133173;28;19976;-68
2024/02/18 00:27:10;;;;;;;;;;;;;;;24.38;30.74;102932.94;4116108;28;19937;-69
2024/02/18 00:29:12;;;;;;;;;;;;;;;24.39;30.33;102933.84;4133308;28;19926;-69
2024/02/18 00:31:13;;;;;;;;;;;;;;;24.38;30.74;102927.56;4133664;28;19935;-69
2024/02/18 00:33:15;;;;;;;;;;;;;;;24.38;30.25;102924.88;4132639;28;19957;-69
2024/02/18 00:35:17;;;;;;;;;;;;;;;24.39;30.41;102934.69;4133048;28;19926;-69
2024/02/18 00:37:19;;;;;;;;;;;;;;;24.39;30.41;102933.84;4133122;28;20017;-68
2024/02/18 00:39:21;;;;;;;;;;;;;;;24.37;30.65;102933.91;4133068;28;19953;-67
2024/02/18 00:41:23;;;;;;;;;;;;;;;24.36;30.45;102934.88;4133005;28;20021;-68
2024/02/18 00:43:24;;;;;;;;;;;;;;;24.36;30.40;102934.00;4115896;28;19980;-68
2024/02/18 00:45:26;;;;;;;;;;;;;;;24.21;30.69;102916.97;4115874;28;20391;-68
2024/02/18 00:47:27;;;;;;;;;;;;;;;24.35;30.38;102935.84;4132775;28;19926;-68
2024/02/18 00:49:29;;;;;;;;;;;;;;;24.35;30.36;102940.34;4133029;28;19934;-68
2024/02/18 00:51:31;;;;;;;;;;;;;;;24.33;30.70;102947.66;4132980;28;19933;-67
2024/02/18 00:53:33;;;;;;;;;;;;;;;24.35;30.43;102953.78;4132853;28;20366;-68
2024/02/18 00:55:35;;;;;;;;;;;;;;;24.37;30.50;102957.25;4132121;28;20016;-68
2024/02/18 00:57:37;;;;;;;;;;;;;;;24.35;30.55;102946.59;4132833;28;19980;-68
2024/02/18 00:59:39;;;;;;;;;;;;;;;24.36;30.61;102951.03;4132732;28;20455;-68
2024/02/18 01:01:40;;;;;;;;;;;;;;;24.35;30.44;102938.53;4132381;28;19926;-67
2024/02/18 01:03:42;;;;;;;;;;;;;;;24.36;30.44;102934.88;4115424;28;19981;-68
2024/02/18 01:05:44;;;;;;;;;;;;;;;24.37;30.36;102936.59;4132752;28;19926;-69
2024/02/18 01:07:45;;;;;;;;;;;;;;;24.36;30.30;102934.88;4132733;28;19957;-68
2024/02/18 01:09:49;;;;;;;;;;;;;;;24.36;30.66;102929.50;4132716;28;19980;-68
2024/02/18 01:11:51;;;;;;;;;;;;;;;24.36;30.69;102924.13;4132663;28;19933;-68
2024/02/18 01:13:53;;;;;;;;;;;;;;;24.35;30.31;102933.16;4132387;28;19926;-68
2024/02/18 01:15:54;;;;;;;;;;;;;;;24.35;30.37;102926.88;4132202;28;19926;-68
2024/02/18 01:17:56;;;;;;;;;;;;;;;24.35;30.24;102933.16;4132465;28;20411;-69
2024/02/18 01:19:58;;;;;;;;;;;;;;;24.34;30.28;102939.47;4132259;28;19926;-68
2024/02/18 01:22:00;;;;;;;;;;;;;;;24.34;30.20;102934.09;4132487;28;20013;-69
2024/02/18 01:24:01;;;;;;;;;;;;;;;24.34;30.32;102931.41;4132391;28;19972;-68
2024/02/18 01:26:03;;;;;;;;;;;;;;;24.37;30.19;102943.81;4132230;28;20315;-69
2024/02/18 01:28:05;;;;;;;;;;;;;;;24.38;30.41;102934.78;4132213;28;19926;-69
2024/02/18 01:30:06;;;;;;;;;;;;;;;24.37;30.23;102941.13;4132179;28;19925;-70
2024/02/18 01:32:08;;;;;;;;;;;;;;;24.39;30.17;102944.59;4132196;28;19932;-70
2024/02/18 01:34:09;;;;;;;;;;;;;;;24.39;30.28;102934.69;4132562;28;19930;-70
2024/02/18 01:36:11;;;;;;;;;;;;;;;24.38;30.23;102930.25;4132334;28;19948;-70
2024/02/18 01:38:13;;;;;;;;;;;;;;;24.38;30.18;102924.88;4132112;28;20284;-69
2024/02/18 01:40:15;;;;;;;;;;;;;;;24.38;30.56;102929.41;4132319;28;20302;-69
2024/02/18 01:42:16;;;;;;;;;;;;;;;24.38;30.25;102937.47;4132234;28;19926;-69
2024/02/18 01:44:18;;;;;;;;;;;;;;;24.38;30.18;102937.47;4132298;28;20399;-69
2024/02/18 01:46:20;;;;;;;;;;;;;;;24.37;30.60;102933.03;4132063;28;20332;-69
2024/02/18 01:48:23;;;;;;;;;;;;;;;24.37;30.41;102930.34;4131910;28;19925;-69
2024/02/18 01:50:26;;;;;;;;;;;;;;;24.35;30.16;102921.50;4132054;28;19932;-69
2024/02/18 01:52:28;;;;;;;;;;;;;;;24.35;30.36;102922.38;4132065;28;19929;-69
2024/02/18 01:54:33;;;;;;;;;;;;;;;24.36;30.38;102917.88;4132217;28;19934;-69
2024/02/18 01:56:35;;;;;;;;;;;;;;;24.36;30.27;102916.06;4132009;28;20449;-68
2024/02/18 01:58:37;;;;;;;;;;;;;;;24.36;30.57;102912.47;4114594;28;19935;-68
2024/02/18 02:00:39;;;;;;;;;;;;;;;24.37;30.19;102909.69;4131598;28;19926;-69
2024/02/18 02:02:43;;;;;;;;;;;;;;;24.38;30.42;102908.75;4132050;28;19932;-69
2024/02/18 02:04:44;;;;;;;;;;;;;;;24.37;30.20;102904.31;4131891;28;20390;-69
2024/02/18 02:06:48;;;;;;;;;;;;;;;24.37;30.49;102906.16;4114765;28;19926;-70
2024/02/18 02:08:51;;;;;;;;;;;;;;;24.37;30.19;102900.78;4132062;28;20403;-69
2024/02/18 02:10:52;;;;;;;;;;;;;;;24.36;30.36;102909.78;4131834;28;20387;-69
2024/02/18 02:12:54;;;;;;;;;;;;;;;24.35;30.49;102908.94;4131796;28;19925;-69
2024/02/18 02:14:56;;;;;;;;;;;;;;;24.34;30.27;102906.31;4131439;28;19933;-69
2024/02/18 02:16:57;;;;;;;;;;;;;;;24.34;30.50;102900.94;4131739;28;19957;-68
2024/02/18 02:18:59;;;;;;;;;;;;;;;24.33;30.46;102899.25;4131882;28;20299;-68
2024/02/18 02:21:01;;;;;;;;;;;;;;;24.31;30.22;102901.16;4131755;28;20399;-69
2024/02/18 02:23:05;;;;;;;;;;;;;;;24.32;30.23;102900.19;4131913;28;20438;-68
2024/02/18 02:25:09;;;;;;;;;;;;;;;24.31;30.54;102909.22;4131747;28;20295;-69
2024/02/18 02:27:13;;;;;;;;;;;;;;;24.32;30.19;102911.81;4131694;28;20393;-68
2024/02/18 02:29:15;;;;;;;;;;;;;;;24.32;30.55;102905.56;4131511;28;19965;-68
2024/02/18 02:31:17;;;;;;;;;;;;;;;24.33;30.31;102905.47;4131818;28;19980;-68
2024/02/18 02:33:19;;;;;;;;;;;;;;;24.33;30.53;102899.25;4103751;28;19926;-68
2024/02/18 02:35:21;;;;;;;;;;;;;;;24.33;30.46;102893.84;4115510;28;19930;-69
2024/02/18 02:37:23;;;;;;;;;;;;;;;24.33;30.29;102894.72;4115373;28;20442;-69
2024/02/18 02:39:24;;;;;;;;;;;;;;;24.32;30.20;102892.97;4115511;28;19926;-69
2024/02/18 02:41:26;;;;;;;;;;;;;;;24.31;30.09;102891.25;4115539;28;19969;-70
2024/02/18 02:43:28;;;;;;;;;;;;;;;24.31;30.51;102888.56;4115195;28;19973;-70
2024/02/18 02:45:30;;;;;;;;;;;;;;;24.29;30.27;102887.78;4115559;28;19926;-69
2024/02/18 02:47:32;;;;;;;;;;;;;;;24.30;30.48;102888.66;4115326;28;19948;-69
2024/02/18 02:49:33;;;;;;;;;;;;;;;24.28;30.20;102887.88;4115635;28;19977;-70
2024/02/18 02:51:35;;;;;;;;;;;;;;;24.27;30.10;102878.09;4115604;28;19926;-69
2024/02/18 02:53:37;;;;;;;;;;;;;;;24.27;30.39;102872.72;4115423;28;19935;-68
2024/02/18 02:55:38;;;;;;;;;;;;;;;24.26;30.15;102853.00;4115312;28;19938;-68
2024/02/18 02:57:42;;;;;;;;;;;;;;;24.26;30.55;102855.69;4114958;28;19926;-67
2024/02/18 02:59:44;;;;;;;;;;;;;;;24.28;30.43;102850.22;4115393;28;20004;-68
2024/02/18 03:01:45;;;;;;;;;;;;;;;24.27;30.41;102848.50;4115539;28;19933;-68
2024/02/18 03:03:47;;;;;;;;;;;;;;;24.28;30.58;102839.47;4115514;28;19969;-68
2024/02/18 03:05:49;;;;;;;;;;;;;;;24.27;30.36;102835.06;4115308;28;19973;-68
2024/02/18 03:07:51;;;;;;;;;;;;;;;24.28;30.33;102828.72;4115260;28;19937;-68
2024/02/18 03:09:52;;;;;;;;;;;;;;;24.28;30.28;102826.03;4115333;28;19927;-68
2024/02/18 03:11:54;;;;;;;;;;;;;;;24.27;30.24;102825.16;4115031;28;20311;-69
2024/02/18 03:13:55;;;;;;;;;;;;;;;24.27;30.47;102825.16;4115417;28;19945;-68
2024/02/18 03:15:57;;;;;;;;;;;;;;;24.27;30.31;102817.09;4098031;29;19934;-68
2024/02/18 03:17:59;;;;;;;;;;;;;;;24.26;30.52;102815.38;4115907;28;19980;-68
2024/02/18 03:20:00;;;;;;;;;;;;;;;24.25;30.50;102821.69;4118173;28;19932;-68
2024/02/18 03:22:02;;;;;;;;;;;;;;;24.24;30.38;102822.66;4101137;28;19926;-68
2024/02/18 03:24:04;;;;;;;;;;;;;;;24.23;30.41;102821.78;4118393;28;19982;-68
2024/02/18 03:26:06;;;;;;;;;;;;;;;24.23;30.35;102818.25;4117609;28;19950;-69
2024/02/18 03:28:08;;;;;;;;;;;;;;;24.22;30.38;102811.16;4101012;29;19926;-68
2024/02/18 03:30:10;;;;;;;;;;;;;;;24.24;30.24;102809.19;4118202;28;20336;-69
2024/02/18 03:32:12;;;;;;;;;;;;;;;24.23;30.31;102811.03;4119633;28;19925;-68
2024/02/18 03:34:14;;;;;;;;;;;;;;;24.24;30.41;102806.50;4134178;28;19953;-69
2024/02/18 03:36:16;;;;;;;;;;;;;;;24.24;30.34;102801.13;4134084;28;19933;-68
2024/02/18 03:38:17;;;;;;;;;;;;;;;24.25;30.52;102797.50;4133876;28;20311;-68
2024/02/18 03:40:19;;;;;;;;;;;;;;;24.24;30.56;102793.97;4133891;28;20013;-70
2024/02/18 03:42:21;;;;;;;;;;;;;;;24.25;30.40;102789.44;4133685;28;20359;-68
2024/02/18 03:44:22;;;;;;;;;;;;;;;24.23;30.53;102784.16;4134147;28;19926;-68
2024/02/18 03:46:24;;;;;;;;;;;;;;;24.22;30.37;102785.09;4134122;28;19926;-68
2024/02/18 03:48:25;;;;;;;;;;;;;;;24.23;30.44;102775.25;4133858;28;19926;-69
2024/02/18 03:50:27;;;;;;;;;;;;;;;24.22;30.11;102771.66;4134037;28;19936;-68
2024/02/18 03:52:29;;;;;;;;;;;;;;;24.21;30.24;102772.63;4133579;28;19933;-68
2024/02/18 03:54:31;;;;;;;;;;;;;;;24.20;30.50;102767.34;4116581;28;20396;-69
2024/02/18 03:56:33;;;;;;;;;;;;;;;24.20;30.32;102760.13;4133202;28;19964;-70
2024/02/18 03:58:35;;;;;;;;;;;;;;;24.19;30.44;102754.84;4133766;28;19925;-68
2024/02/18 04:00:37;;;;;;;;;;;;;;;24.18;30.48;102751.31;4133804;28;19926;-68
2024/02/18 04:02:40;;;;;;;;;;;;;;;24.18;30.24;102758.50;4133587;28;19925;-68
2024/02/18 04:04:42;;;;;;;;;;;;;;;24.19;30.17;102755.75;4133840;28;19936;-68
2024/02/18 04:06:44;;;;;;;;;;;;;;;24.20;30.29;102743.16;4133850;28;19957;-68
2024/02/18 04:08:45;;;;;;;;;;;;;;;24.21;30.55;102742.19;4133467;28;19972;-68
2024/02/18 04:10:47;;;;;;;;;;;;;;;24.20;30.23;102744.00;4133549;28;19933;-69
2024/02/18 04:12:50;;;;;;;;;;;;;;;24.21;30.49;102736.81;4133491;28;20025;-68
2024/02/18 04:14:52;;;;;;;;;;;;;;;24.20;30.60;102727.88;4133438;28;19936;-68
2024/02/18 04:16:53;;;;;;;;;;;;;;;24.20;30.07;102725.19;4133531;28;20371;-68
2024/02/18 04:18:55;;;;;;;;;;;;;;;24.20;30.46;102727.00;4133368;28;20017;-69
2024/02/18 04:20:57;;;;;;;;;;;;;;;24.19;30.41;102728.84;4133535;28;19972;-68
2024/02/18 04:22:59;;;;;;;;;;;;;;;24.18;30.48;102721.75;4133602;28;19936;-68
2024/02/18 04:25:00;;;;;;;;;;;;;;;24.04;30.41;102703.75;4133113;28;19980;-68
2024/02/18 04:27:09;;;;;;;;;;;;;;;24.16;30.56;102728.19;4133395;28;20354;-68
2024/02/18 04:29:10;;;;;;;;;;;;;;;24.16;30.52;102730.88;4132918;28;19926;-68
2024/02/18 04:31:12;;;;;;;;;;;;;;;24.16;30.22;102733.56;4133062;28;19926;-68
2024/02/18 04:33:13;;;;;;;;;;;;;;;24.16;30.20;102729.03;4133296;28;20422;-69
2024/02/18 04:35:15;;;;;;;;;;;;;;;24.17;30.44;102716.44;4133262;28;19933;-69
2024/02/18 04:37:17;;;;;;;;;;;;;;;24.18;30.37;102715.47;4133202;28;20296;-68
2024/02/18 04:39:19;;;;;;;;;;;;;;;24.17;30.30;102714.63;4132959;28;20386;-69
2024/02/18 04:41:21;;;;;;;;;;;;;;;24.19;30.45;102714.53;4133535;28;19949;-69
2024/02/18 04:43:23;;;;;;;;;;;;;;;24.19;30.50;102714.53;4133250;28;20391;-68
2024/02/18 04:45:25;;;;;;;;;;;;;;;24.19;30.55;102706.47;4133179;28;19996;-68
2024/02/18 04:47:26;;;;;;;;;;;;;;;24.18;30.43;102711.00;4115648;28;20029;-69
2024/02/18 04:49:28;;;;;;;;;;;;;;;24.18;30.37;102710.09;4133224;28;19926;-69
2024/02/18 04:51:32;;;;;;;;;;;;;;;24.18;30.62;102715.47;4132055;28;20275;-69
2024/02/18 04:53:33;;;;;;;;;;;;;;;24.16;30.08;102712.91;4132554;28;19930;-69
2024/02/18 04:55:35;;;;;;;;;;;;;;;24.14;30.44;102706.75;4132808;28;19926;-69
2024/02/18 04:57:37;;;;;;;;;;;;;;;24.14;30.58;102709.44;4132686;28;19932;-69
2024/02/18 04:59:38;;;;;;;;;;;;;;;24.14;30.44;102706.75;4115701;28;20016;-68
2024/02/18 05:01:45;;;;;;;;;;;;;;;23.99;30.25;102676.31;4115620;28;20016;-68
2024/02/18 05:03:47;;;;;;;;;;;;;;;24.14;30.63;102698.69;4133151;28;19933;-68
2024/02/18 05:05:48;;;;;;;;;;;;;;;24.14;30.38;102687.91;4132566;28;19930;-69
2024/02/18 05:07:50;;;;;;;;;;;;;;;24.14;30.51;102698.69;4132329;28;20028;-68
2024/02/18 05:09:52;;;;;;;;;;;;;;;24.16;30.20;102696.75;4132618;28;19925;-68
2024/02/18 05:11:54;;;;;;;;;;;;;;;24.15;30.46;102697.72;4132868;28;20402;-69
2024/02/18 05:13:56;;;;;;;;;;;;;;;24.15;30.51;102696.88;4115436;28;19932;-69
2024/02/18 05:15:57;;;;;;;;;;;;;;;24.16;30.22;102693.22;4132571;28;20383;-68
2024/02/18 05:17:59;;;;;;;;;;;;;;;24.15;30.56;102697.72;4115343;28;19926;-69
2024/02/18 05:20:01;;;;;;;;;;;;;;;24.15;30.33;102702.25;4132627;28;19926;-68
2024/02/18 05:22:03;;;;;;;;;;;;;;;24.14;30.44;102696.00;4132272;28;19961;-68
2024/02/18 05:24:06;;;;;;;;;;;;;;;24.14;30.49;102695.13;4132520;28;20029;-68
2024/02/18 05:26:09;;;;;;;;;;;;;;;24.13;30.51;102696.94;4132321;28;20420;-69
2024/02/18 05:28:10;;;;;;;;;;;;;;;24.14;30.54;102700.50;4115246;28;19926;-68
2024/02/18 05:30:12;;;;;;;;;;;;;;;24.11;30.38;102696.19;4132438;28;19926;-69
2024/02/18 05:32:14;;;;;;;;;;;;;;;24.10;30.51;102694.47;4132251;28;19933;-69
2024/02/18 05:34:16;;;;;;;;;;;;;;;24.09;30.54;102690.03;4132428;28;19953;-68
2024/02/18 05:36:20;;;;;;;;;;;;;;;24.09;30.48;102693.56;4132183;28;19925;-68
2024/02/18 05:38:22;;;;;;;;;;;;;;;24.11;30.58;102703.38;4131947;28;19948;-70
2024/02/18 05:40:23;;;;;;;;;;;;;;;24.12;30.69;102688.97;4132118;28;19929;-69
2024/02/18 05:42:25;;;;;;;;;;;;;;;24.12;30.15;102692.56;4132173;28;19980;-69
2024/02/18 05:44:26;;;;;;;;;;;;;;;24.12;30.12;102686.28;4132288;28;19932;-69
2024/02/18 05:46:28;;;;;;;;;;;;;;;24.11;30.59;102685.44;4132152;28;19930;-70
2024/02/18 05:48:29;;;;;;;;;;;;;;;24.13;30.35;102688.03;4132359;28;20375;-69
2024/02/18 05:50:31;;;;;;;;;;;;;;;24.12;30.07;102689.88;4132114;28;19926;-69
2024/02/18 05:52:33;;;;;;;;;;;;;;;24.12;30.52;102686.28;4131975;28;20176;-69
2024/02/18 05:54:34;;;;;;;;;;;;;;;24.11;30.58;102695.31;4132083;28;19934;-69
2024/02/18 05:56:36;;;;;;;;;;;;;;;24.11;30.25;102692.63;4131955;28;19930;-70
2024/02/18 05:58:38;;;;;;;;;;;;;;;24.08;30.42;102683.81;4132322;28;20429;-68
2024/02/18 06:00:40;;;;;;;;;;;;;;;24.07;30.64;102684.78;4132095;28;20001;-69
2024/02/18 06:02:41;;;;;;;;;;;;;;;24.07;30.52;102687.47;4114758;28;19934;-69
2024/02/18 06:04:43;;;;;;;;;;;;;;;24.07;30.24;102681.19;4131866;28;19929;-69
2024/02/18 06:06:45;;;;;;;;;;;;;;;24.08;30.27;102680.25;4131646;28;19926;-69
2024/02/18 06:08:46;;;;;;;;;;;;;;;24.08;30.38;102680.25;4131843;28;19933;-69
2024/02/18 06:10:48;;;;;;;;;;;;;;;24.10;30.22;102678.34;4131918;28;19926;-69
2024/02/18 06:12:50;;;;;;;;;;;;;;;24.09;30.31;102679.28;4132020;28;19933;-69
2024/02/18 06:14:52;;;;;;;;;;;;;;;24.08;30.55;102683.81;4131769;28;19969;-69
2024/02/18 06:16:53;;;;;;;;;;;;;;;24.08;30.37;102677.56;4131730;28;19969;-68
2024/02/18 06:18:55;;;;;;;;;;;;;;;24.09;30.49;102676.59;4131898;28;20005;-68
2024/02/18 06:20:57;;;;;;;;;;;;;;;24.09;30.39;102677.44;4131620;28;19932;-68
2024/02/18 06:22:58;;;;;;;;;;;;;;;24.09;30.41;102674.75;4131805;28;19929;-68
2024/02/18 06:25:00;;;;;;;;;;;;;;;24.09;30.60;102669.38;4131898;28;20004;-68
2024/02/18 06:27:02;;;;;;;;;;;;;;;24.08;30.56;102661.44;4131492;28;20355;-67
2024/02/18 06:29:03;;;;;;;;;;;;;;;24.07;30.64;102659.69;4131706;28;19937;-67
2024/02/18 06:31:05;;;;;;;;;;;;;;;24.06;30.58;102645.41;4114326;28;19926;-68
2024/02/18 06:33:07;;;;;;;;;;;;;;;24.05;30.61;102626.69;4131486;28;19933;-68
2024/02/18 06:35:09;;;;;;;;;;;;;;;24.05;30.66;102610.56;4131465;28;20288;-69
2024/02/18 06:37:12;;;;;;;;;;;;;;;24.03;30.45;102612.47;4131666;28;19926;-70
2024/02/18 06:39:13;;;;;;;;;;;;;;;24.03;30.62;102617.84;4131678;28;20415;-69
2024/02/18 06:41:15;;;;;;;;;;;;;;;24.04;30.65;102619.59;4131670;28;20414;-72
2024/02/18 06:43:17;;;;;;;;;;;;;;;24.05;30.42;102627.53;4131646;28;20454;-69
2024/02/18 06:45:18;;;;;;;;;;;;;;;24.05;30.72;102629.38;4131710;28;20395;-69
2024/02/18 06:47:20;;;;;;;;;;;;;;;24.06;30.35;102621.22;4131328;28;19926;-69
2024/02/18 06:49:22;;;;;;;;;;;;;;;24.07;30.66;102614.88;4131044;28;19944;-68
2024/02/18 06:51:23;;;;;;;;;;;;;;;24.06;30.66;102623.91;4131566;28;19929;-69
2024/02/18 06:53:25;;;;;;;;;;;;;;;24.07;30.72;102632.81;4132878;28;20024;-69
2024/02/18 06:55:27;;;;;;;;;;;;;;;24.06;30.71;102628.41;4134862;28;19930;-69
2024/02/18 06:57:28;;;;;;;;;;;;;;;24.05;30.53;102629.38;4134751;28;19926;-68
2024/02/18 06:59:30;;;;;;;;;;;;;;;24.04;30.48;102631.19;4134739;28;19926;-69
2024/02/18 07:01:33;;;;;;;;;;;;;;;24.04;30.83;102638.41;4134948;28;20012;-69
2024/02/18 07:03:34;;;;;;;;;;;;;;;24.03;30.85;102625.91;4117289;28;20415;-70
2024/02/18 07:05:36;;;;;;;;;;;;;;;24.02;30.85;102622.38;4117414;28;20009;-70
2024/02/18 07:07:37;;;;;;;;;;;;;;;24.01;30.68;102615.28;4134621;28;19926;-70
2024/02/18 07:09:41;;;;;;;;;;;;;;;24.00;30.67;102610.84;4134602;28;20025;-69
2024/02/18 07:11:43;;;;;;;;;;;;;;;24.01;30.70;102603.63;4135208;28;19926;-70
2024/02/18 07:13:44;;;;;;;;;;;;;;;24.02;30.81;102591.94;4134581;28;20394;-69
2024/02/18 07:15:46;;;;;;;;;;;;;;;24.03;30.69;102591.81;4134484;28;20311;-69
2024/02/18 07:17:47;;;;;;;;;;;;;;;24.02;30.68;102568.63;4134553;28;19983;-68
2024/02/18 07:19:49;;;;;;;;;;;;;;;24.03;30.53;102577.53;4134152;28;19936;-69
2024/02/18 07:21:51;;;;;;;;;;;;;;;24.03;30.86;102572.16;4134269;28;20303;-67
2024/02/18 07:23:53;;;;;;;;;;;;;;;24.03;30.80;102572.16;4134250;28;20008;-69
2024/02/18 07:25:55;;;;;;;;;;;;;;;24.03;30.71;102575.69;4134437;28;20013;-69
2024/02/18 07:27:57;;;;;;;;;;;;;;;24.03;30.71;102573.00;4134540;28;19932;-68
2024/02/18 07:29:58;;;;;;;;;;;;;;;24.02;30.90;102557.00;4134249;28;19926;-69
2024/02/18 07:32:00;;;;;;;;;;;;;;;24.01;30.91;102558.81;4134353;28;19925;-68
2024/02/18 07:34:02;;;;;;;;;;;;;;;24.01;30.93;102548.06;4133838;28;19925;-68
2024/02/18 07:36:03;;;;;;;;;;;;;;;24.00;30.93;102558.91;4133955;28;19961;-68
2024/02/18 07:38:05;;;;;;;;;;;;;;;23.98;30.70;102561.69;4133916;28;20288;-68
2024/02/18 07:40:07;;;;;;;;;;;;;;;23.97;30.92;102565.34;4134097;28;19932;-68
2024/02/18 07:42:08;;;;;;;;;;;;;;;23.98;30.56;102561.69;4134058;28;19925;-69
2024/02/18 07:44:10;;;;;;;;;;;;;;;23.99;30.82;102559.88;4133887;28;19926;-69
2024/02/18 07:46:12;;;;;;;;;;;;;;;24.00;31.00;102562.47;4134117;28;19926;-69
2024/02/18 07:48:14;;;;;;;;;;;;;;;23.99;30.71;102568.81;4133604;28;20403;-69
2024/02/18 07:50:15;;;;;;;;;;;;;;;24.00;31.08;102575.91;4134178;28;20314;-69
2024/02/18 07:52:17;;;;;;;;;;;;;;;24.01;31.03;102564.19;4133906;28;19972;-69
2024/02/18 07:54:18;;;;;;;;;;;;;;;24.01;30.91;102563.31;4133763;28;19929;-68
2024/02/18 07:56:20;;;;;;;;;;;;;;;24.01;30.81;102560.63;4133857;28;19925;-69
2024/02/18 07:58:22;;;;;;;;;;;;;;;24.00;30.96;102562.47;4133872;28;20391;-68
2024/02/18 08:00:23;;;;;;;;;;;;;;;23.99;30.66;102558.06;4133905;28;20029;-69
2024/02/18 08:02:26;;;;;;;;;;;;;;;24.00;30.91;102572.34;4116378;28;19926;-69
2024/02/18 08:04:28;;;;;;;;;;;;;;;23.99;30.78;102576.88;4133432;28;19996;-69
2024/02/18 08:06:31;;;;;;;;;;;;;;;23.99;30.81;102592.13;4133563;28;19933;-69
2024/02/18 08:08:33;;;;;;;;;;;;;;;23.97;31.11;102589.53;4133543;28;19926;-69
2024/02/18 08:10:35;;;;;;;;;;;;;;;23.96;30.72;102592.31;4133617;28;19925;-69
2024/02/18 08:12:36;;;;;;;;;;;;;;;23.96;30.84;102586.94;4133925;28;19926;-69
2024/02/18 08:14:40;;;;;;;;;;;;;;;23.96;30.81;102584.25;4133587;28;20024;-69
2024/02/18 08:16:41;;;;;;;;;;;;;;;23.96;30.64;102582.41;4133219;28;20419;-68
2024/02/18 08:18:43;;;;;;;;;;;;;;;23.97;30.62;102565.34;4133520;28;19926;-69
2024/02/18 08:20:45;;;;;;;;;;;;;;;23.98;30.97;102560.84;4133545;28;19925;-68
2024/02/18 08:22:46;;;;;;;;;;;;;;;23.99;30.62;102565.25;4133614;28;20017;-68
2024/02/18 08:24:48;;;;;;;;;;;;;;;23.99;30.62;102567.94;4133364;28;19925;-69
2024/02/18 08:26:50;;;;;;;;;;;;;;;23.99;30.91;102563.44;4133585;28;19933;-68
2024/02/18 08:28:52;;;;;;;;;;;;;;;23.98;31.00;102556.31;4133526;28;19937;-68
2024/02/18 08:30:55;;;;;;;;;;;;;;;23.98;30.89;102553.63;4133151;28;19933;-68
2024/02/18 08:32:58;;;;;;;;;;;;;;;23.98;31.00;102550.09;4133237;28;19933;-68
2024/02/18 08:35:00;;;;;;;;;;;;;;;23.97;30.94;102553.75;4133601;28;19980;-68
2024/02/18 08:37:03;;;;;;;;;;;;;;;23.96;30.81;102558.22;4133146;28;19926;-68
2024/02/18 08:39:04;;;;;;;;;;;;;;;23.95;31.00;102556.53;4133314;28;20328;-68
2024/02/18 08:41:06;;;;;;;;;;;;;;;23.95;30.80;102561.91;4133418;28;20299;-68
2024/02/18 08:43:08;;;;;;;;;;;;;;;23.94;31.05;102560.19;4133270;28;19972;-68
2024/02/18 08:45:09;;;;;;;;;;;;;;;23.95;30.99;102559.22;4132796;28;19964;-68
2024/02/18 08:47:11;;;;;;;;;;;;;;;23.95;30.88;102561.03;4133100;28;19926;-68
2024/02/18 08:49:13;;;;;;;;;;;;;;;23.96;31.00;102566.28;4133094;28;20326;-68
2024/02/18 08:51:14;;;;;;;;;;;;;;;23.97;30.76;102568.03;4115885;28;20446;-68
2024/02/18 08:53:16;;;;;;;;;;;;;;;23.98;31.05;102563.53;4132972;28;20402;-68
2024/02/18 08:55:18;;;;;;;;;;;;;;;23.97;31.05;102562.66;4132878;28;19926;-68
2024/02/18 08:57:20;;;;;;;;;;;;;;;23.97;30.88;102562.66;4132695;28;19965;-68
2024/02/18 08:59:22;;;;;;;;;;;;;;;23.97;31.06;102564.50;4132893;28;20005;-68
2024/02/18 09:01:23;;;;;;;;;;;;;;;23.97;31.18;102569.88;4132315;28;19961;-68
2024/02/18 09:03:27;;;;;;;;;;;;;;;23.96;31.18;102573.50;4132710;28;19930;-70
2024/02/18 09:05:28;;;;;;;;;;;;;;;23.96;31.02;102608.44;4132763;28;19930;-68
2024/02/18 09:07:31;;;;;;;;;;;;;;;23.95;31.14;102618.34;4132955;28;19926;-69
2024/02/18 09:09:33;;;;;;;;;;;;;;;23.96;31.22;102611.13;4132883;28;19926;-69
2024/02/18 09:11:36;;;;;;;;;;;;;;;23.94;30.93;102603.19;4132795;28;19925;-69
2024/02/18 09:13:38;;;;;;;;;;;;;;;23.95;31.37;102620.16;4132638;28;19925;-69
2024/02/18 09:15:40;;;;;;;;;;;;;;;23.93;30.93;102606.81;4131688;28;20066;-69
2024/02/18 09:17:42;;;;;;;;;;;;;;;23.95;31.37;102604.03;4132608;28;19979;-68
2024/02/18 09:19:46;;;;;;;;;;;;;;;23.94;31.18;102597.78;4132668;28;19929;-69
2024/02/18 09:21:49;;;;;;;;;;;;;;;23.96;31.35;102589.63;4132446;28;20024;-68
2024/02/18 09:23:50;;;;;;;;;;;;;;;23.95;31.33;102590.59;4132517;28;19926;-68
2024/02/18 09:25:52;;;;;;;;;;;;;;;23.98;30.94;102593.09;4132444;28;19925;-69
2024/02/18 09:27:54;;;;;;;;;;;;;;;23.97;31.50;102592.22;4114996;28;19930;-68
2024/02/18 09:29:55;;;;;;;;;;;;;;;23.98;31.25;102598.47;4132034;28;19965;-68
2024/02/18 09:31:57;;;;;;;;;;;;;;;23.96;31.43;102598.53;4132400;28;19932;-68
2024/02/18 09:33:58;;;;;;;;;;;;;;;23.97;31.31;102597.59;4132303;28;19961;-68
2024/02/18 09:36:00;;;;;;;;;;;;;;;23.96;31.42;102597.69;4132110;28;19926;-68
2024/02/18 09:38:08;;;;;;;;;;;;;;;23.96;31.49;102595.84;4132191;28;20355;-68
2024/02/18 09:40:11;;;;;;;;;;;;;;;23.96;31.54;102592.31;4132198;28;19926;-68
2024/02/18 09:42:14;;;;;;;;;;;;;;;23.96;31.58;102592.31;4132409;28;19926;-68
2024/02/18 09:44:18;;;;;;;;;;;;;;;23.95;31.54;102587.91;4131834;28;19930;-68
2024/02/18 09:46:20;;;;;;;;;;;;;;;23.93;31.71;102583.47;4132158;28;19973;-69
2024/02/18 09:48:22;;;;;;;;;;;;;;;23.93;31.66;102570.03;4132143;28;20454;-68
2024/02/18 09:50:24;;;;;;;;;;;;;;;23.94;31.71;102573.63;4132133;28;19933;-68
2024/02/18 09:52:26;;;;;;;;;;;;;;;23.95;31.73;102566.41;4132287;28;20013;-68
2024/02/18 09:54:29;;;;;;;;;;;;;;;23.95;31.38;102564.59;4132089;28;20061;-68
2024/02/18 09:56:31;;;;;;;;;;;;;;;23.96;31.71;102554.69;4131853;28;20375;-68
2024/02/18 09:58:33;;;;;;;;;;;;;;;23.96;31.58;102547.47;4131615;28;19925;-69
2024/02/18 10:00:35;;;;;;;;;;;;;;;23.96;31.61;102552.84;4132037;28;19956;-68
2024/02/18 10:02:37;;;;;;;;;;;;;;;23.96;31.65;102543.94;4131861;28;19926;-69
2024/02/18 10:04:46;;;;;;;;;;;;;;;23.96;31.46;102546.63;4131853;28;19932;-68
2024/02/18 10:06:48;;;;;;;;;;;;;;;23.95;31.86;102545.78;4131880;28;19933;-68
2024/02/18 10:08:54;;;;;;;;;;;;;;;23.94;31.77;102541.38;4132066;28;19926;-68
2024/02/18 10:10:57;;;;;;;;;;;;;;;23.94;31.66;102533.31;4131901;28;19956;-69
2024/02/18 10:12:59;;;;;;;;;;;;;;;23.95;31.79;102536.84;4131623;28;19926;-68
2024/02/18 10:15:03;;;;;;;;;;;;;;;23.92;31.54;102529.81;4131774;28;19926;-68
2024/02/18 10:17:05;;;;;;;;;;;;;;;23.90;31.76;102535.28;4131576;28;19925;-68
2024/02/18 10:19:08;;;;;;;;;;;;;;;23.92;31.90;102538.75;4131763;28;19936;-68
2024/02/18 10:21:11;;;;;;;;;;;;;;;23.92;31.80;102541.44;4131980;28;19972;-68
2024/02/18 10:23:12;;;;;;;;;;;;;;;23.92;31.97;102545.94;4131829;28;20017;-69
2024/02/18 10:25:16;;;;;;;;;;;;;;;23.92;31.70;102541.44;4131418;28;19926;-69